sensor_id;sensor_type;location;lat;lon;timestamp;temperature;humidity
2767;DHT22;1391;46.74287300;11.63683300;2023-04-25T00:00:48;3.90;99.90
2767;DHT22;1391;46.74287300;11.63683300;2023-04-25T00:03:15;3.80;99.00
2767;DHT22;1391;46.74287300;11.63683300;2023-04-25T00:05:44;4.10;97.60
2767;DHT22;1391;46.74287300;11.63683300;2023-04-25T00:08:12;4.10;96.80
2767;DHT22;1391;46.74287300;11.63683300;2023-04-25T00:10:39;4.40;95.90
2767;DHT22;1391;46.74287300;11.63683300;2023-04-25T00:13:06;4.20;95.90
2767;DHT22;1391;46.74287300;11.63683300;2023-04-25T00:15:34;3.90;97.20
2767;DHT22;1391;46.74287300;11.63683300;2023-04-25T00:18:03;3.70;97.50
2767;DHT22;1391;46.74287300;11.63683300;2023-04-25T00:20:31;3.90;99.30
2767;DHT22;1391;46.74287300;11.63683300;2023-04-25T00:22:58;3.80;99.90
2767;DHT22;1391;46.74287300;11.63683300;2023-04-25T00:25:26;4.20;98.80
2767;DHT22;1391;46.74287300;11.63683300;2023-04-25T00:27:53;4.20;98.70
2767;DHT22;1391;46.74287300;11.63683300;2023-04-25T00:30:21;4.20;99.30
2767;DHT22;1391;46.74287300;11.63683300;2023-04-25T00:32:48;3.80;99.70
2767;DHT22;1391;46.74287300;11.63683300;2023-04-25T00:35:17;3.60;99.90
2767;DHT22;1391;46.74287300;11.63683300;2023-04-25T00:37:45;3.50;99.90
2767;DHT22;1391;46.74287300;11.63683300;2023-04-25T00:40:12;3.20;99.90
2767;DHT22;1391;46.74287300;11.63683300;2023-04-25T00:42:40;3.20;99.90
2767;DHT22;1391;46.74287300;11.63683300;2023-04-25T00:45:09;3.40;99.90
2767;DHT22;1391;46.74287300;11.63683300;2023-04-25T00:47:40;3.30;99.90
2767;DHT22;1391;46.74287300;11.63683300;2023-04-25T00:50:08;3.70;99.90
2767;DHT22;1391;46.74287300;11.63683300;2023-04-25T00:52:38;3.20;99.90
2767;DHT22;1391;46.74287300;11.63683300;2023-04-25T00:55:06;3.20;99.90
2767;DHT22;1391;46.74287300;11.63683300;2023-04-25T00:57:34;3.40;99.90
2767;DHT22;1391;46.74287300;11.63683300;2023-04-25T01:00:03;3.80;99.90
2767;DHT22;1391;46.74287300;11.63683300;2023-04-25T01:02:33;3.90;99.90
2767;DHT22;1391;46.74287300;11.63683300;2023-04-25T01:05:01;3.70;99.90
2767;DHT22;1391;46.74287300;11.63683300;2023-04-25T01:07:29;3.90;99.90
2767;DHT22;1391;46.74287300;11.63683300;2023-04-25T01:09:58;4.00;99.90
2767;DHT22;1391;46.74287300;11.63683300;2023-04-25T01:12:25;3.80;99.90
2767;DHT22;1391;46.74287300;11.63683300;2023-04-25T01:14:53;3.90;99.90
2767;DHT22;1391;46.74287300;11.63683300;2023-04-25T01:17:20;3.70;99.90
2767;DHT22;1391;46.74287300;11.63683300;2023-04-25T01:19:48;3.70;99.90
2767;DHT22;1391;46.74287300;11.63683300;2023-04-25T01:22:19;3.70;99.90
2767;DHT22;1391;46.74287300;11.63683300;2023-04-25T01:24:46;3.80;99.90
2767;DHT22;1391;46.74287300;11.63683300;2023-04-25T01:27:14;3.80;99.90
2767;DHT22;1391;46.74287300;11.63683300;2023-04-25T01:29:42;3.30;99.90
2767;DHT22;1391;46.74287300;11.63683300;2023-04-25T01:32:10;3.50;99.90
2767;DHT22;1391;46.74287300;11.63683300;2023-04-25T01:34:37;3.70;99.90
2767;DHT22;1391;46.74287300;11.63683300;2023-04-25T01:37:05;3.70;99.90
2767;DHT22;1391;46.74287300;11.63683300;2023-04-25T01:39:33;3.70;99.90
2767;DHT22;1391;46.74287300;11.63683300;2023-04-25T01:42:01;3.40;99.90
2767;DHT22;1391;46.74287300;11.63683300;2023-04-25T01:44:29;3.10;99.90
2767;DHT22;1391;46.74287300;11.63683300;2023-04-25T01:46:56;3.20;99.90
2767;DHT22;1391;46.74287300;11.63683300;2023-04-25T01:49:23;3.10;99.90
2767;DHT22;1391;46.74287300;11.63683300;2023-04-25T01:51:51;2.80;99.90
2767;DHT22;1391;46.74287300;11.63683300;2023-04-25T01:54:18;2.80;99.90
2767;DHT22;1391;46.74287300;11.63683300;2023-04-25T01:56:51;2.80;99.90
2767;DHT22;1391;46.74287300;11.63683300;2023-04-25T01:59:19;3.10;99.90
2767;DHT22;1391;46.74287300;11.63683300;2023-04-25T02:01:47;2.80;99.90
2767;DHT22;1391;46.74287300;11.63683300;2023-04-25T02:04:15;3.00;99.90
2767;DHT22;1391;46.74287300;11.63683300;2023-04-25T02:06:42;3.20;99.90
2767;DHT22;1391;46.74287300;11.63683300;2023-04-25T02:09:09;3.40;99.90
2767;DHT22;1391;46.74287300;11.63683300;2023-04-25T02:11:37;3.10;99.90
2767;DHT22;1391;46.74287300;11.63683300;2023-04-25T02:14:05;2.60;99.90
2767;DHT22;1391;46.74287300;11.63683300;2023-04-25T02:16:32;2.80;99.90
2767;DHT22;1391;46.74287300;11.63683300;2023-04-25T02:19:01;2.10;99.90
2767;DHT22;1391;46.74287300;11.63683300;2023-04-25T02:21:28;2.30;99.90
2767;DHT22;1391;46.74287300;11.63683300;2023-04-25T02:23:56;2.80;99.90
2767;DHT22;1391;46.74287300;11.63683300;2023-04-25T02:26:23;2.40;99.90
2767;DHT22;1391;46.74287300;11.63683300;2023-04-25T02:28:51;2.40;99.90
2767;DHT22;1391;46.74287300;11.63683300;2023-04-25T02:31:20;2.70;99.90
2767;DHT22;1391;46.74287300;11.63683300;2023-04-25T02:33:48;2.90;99.90
2767;DHT22;1391;46.74287300;11.63683300;2023-04-25T02:36:15;2.70;99.90
2767;DHT22;1391;46.74287300;11.63683300;2023-04-25T02:38:42;3.00;99.90
2767;DHT22;1391;46.74287300;11.63683300;2023-04-25T02:41:10;3.10;99.90
2767;DHT22;1391;46.74287300;11.63683300;2023-04-25T02:43:37;2.80;99.90
2767;DHT22;1391;46.74287300;11.63683300;2023-04-25T02:46:05;2.40;99.90
2767;DHT22;1391;46.74287300;11.63683300;2023-04-25T02:48:34;2.60;99.90
2767;DHT22;1391;46.74287300;11.63683300;2023-04-25T02:51:01;2.50;99.90
2767;DHT22;1391;46.74287300;11.63683300;2023-04-25T02:53:28;2.50;99.90
2767;DHT22;1391;46.74287300;11.63683300;2023-04-25T02:55:56;2.20;99.90
2767;DHT22;1391;46.74287300;11.63683300;2023-04-25T02:58:24;2.70;99.90
2767;DHT22;1391;46.74287300;11.63683300;2023-04-25T03:00:52;2.40;99.90
2767;DHT22;1391;46.74287300;11.63683300;2023-04-25T03:03:19;2.60;99.90
2767;DHT22;1391;46.74287300;11.63683300;2023-04-25T03:05:49;2.40;99.90
2767;DHT22;1391;46.74287300;11.63683300;2023-04-25T03:08:16;1.80;99.90
2767;DHT22;1391;46.74287300;11.63683300;2023-04-25T03:10:44;1.80;99.90
2767;DHT22;1391;46.74287300;11.63683300;2023-04-25T03:13:11;2.00;99.90
2767;DHT22;1391;46.74287300;11.63683300;2023-04-25T03:15:39;2.60;99.90
2767;DHT22;1391;46.74287300;11.63683300;2023-04-25T03:18:06;2.50;99.90
2767;DHT22;1391;46.74287300;11.63683300;2023-04-25T03:20:33;2.40;99.90
2767;DHT22;1391;46.74287300;11.63683300;2023-04-25T03:23:02;2.50;99.90
2767;DHT22;1391;46.74287300;11.63683300;2023-04-25T03:25:30;2.20;99.90
2767;DHT22;1391;46.74287300;11.63683300;2023-04-25T03:27:57;2.50;99.90
2767;DHT22;1391;46.74287300;11.63683300;2023-04-25T03:30:24;2.30;99.90
2767;DHT22;1391;46.74287300;11.63683300;2023-04-25T03:32:52;2.30;99.90
2767;DHT22;1391;46.74287300;11.63683300;2023-04-25T03:35:19;2.00;99.90
2767;DHT22;1391;46.74287300;11.63683300;2023-04-25T03:37:48;1.70;99.90
2767;DHT22;1391;46.74287300;11.63683300;2023-04-25T03:40:17;2.40;99.90
2767;DHT22;1391;46.74287300;11.63683300;2023-04-25T03:42:45;2.00;99.90
2767;DHT22;1391;46.74287300;11.63683300;2023-04-25T03:45:12;2.30;99.90
2767;DHT22;1391;46.74287300;11.63683300;2023-04-25T03:47:40;2.10;99.90
2767;DHT22;1391;46.74287300;11.63683300;2023-04-25T03:50:08;2.00;99.90
2767;DHT22;1391;46.74287300;11.63683300;2023-04-25T03:52:36;2.40;99.90
2767;DHT22;1391;46.74287300;11.63683300;2023-04-25T03:55:04;2.40;99.90
2767;DHT22;1391;46.74287300;11.63683300;2023-04-25T03:57:38;2.20;99.90
2767;DHT22;1391;46.74287300;11.63683300;2023-04-25T04:00:08;1.70;99.90
2767;DHT22;1391;46.74287300;11.63683300;2023-04-25T04:02:36;1.70;99.90
2767;DHT22;1391;46.74287300;11.63683300;2023-04-25T04:05:04;1.70;99.90
2767;DHT22;1391;46.74287300;11.63683300;2023-04-25T04:07:32;2.40;99.90
2767;DHT22;1391;46.74287300;11.63683300;2023-04-25T04:10:06;1.80;99.90
2767;DHT22;1391;46.74287300;11.63683300;2023-04-25T04:12:35;1.80;99.90
2767;DHT22;1391;46.74287300;11.63683300;2023-04-25T04:15:04;1.80;99.90
2767;DHT22;1391;46.74287300;11.63683300;2023-04-25T04:17:33;1.80;99.90
2767;DHT22;1391;46.74287300;11.63683300;2023-04-25T04:20:00;2.10;99.90
2767;DHT22;1391;46.74287300;11.63683300;2023-04-25T04:22:29;2.30;99.90
2767;DHT22;1391;46.74287300;11.63683300;2023-04-25T04:24:56;2.30;99.90
2767;DHT22;1391;46.74287300;11.63683300;2023-04-25T04:27:23;2.20;99.90
2767;DHT22;1391;46.74287300;11.63683300;2023-04-25T04:29:52;1.80;99.90
2767;DHT22;1391;46.74287300;11.63683300;2023-04-25T04:32:19;1.90;99.90
2767;DHT22;1391;46.74287300;11.63683300;2023-04-25T04:34:48;2.20;99.90
2767;DHT22;1391;46.74287300;11.63683300;2023-04-25T04:37:16;2.40;99.90
2767;DHT22;1391;46.74287300;11.63683300;2023-04-25T04:39:44;1.80;99.90
2767;DHT22;1391;46.74287300;11.63683300;2023-04-25T04:42:11;1.80;99.90
2767;DHT22;1391;46.74287300;11.63683300;2023-04-25T04:44:38;2.40;99.90
2767;DHT22;1391;46.74287300;11.63683300;2023-04-25T04:47:07;1.80;99.90
2767;DHT22;1391;46.74287300;11.63683300;2023-04-25T04:49:36;1.80;99.90
2767;DHT22;1391;46.74287300;11.63683300;2023-04-25T04:56:07;2.50;99.90
2767;DHT22;1391;46.74287300;11.63683300;2023-04-25T04:59:04;2.80;99.90
2767;DHT22;1391;46.74287300;11.63683300;2023-04-25T05:01:31;3.00;99.90
2767;DHT22;1391;46.74287300;11.63683300;2023-04-25T05:04:03;2.90;99.90
2767;DHT22;1391;46.74287300;11.63683300;2023-04-25T05:06:30;3.20;99.90
2767;DHT22;1391;46.74287300;11.63683300;2023-04-25T05:08:58;3.00;99.90
2767;DHT22;1391;46.74287300;11.63683300;2023-04-25T05:11:26;3.50;99.90
2767;DHT22;1391;46.74287300;11.63683300;2023-04-25T05:13:53;3.80;99.90
2767;DHT22;1391;46.74287300;11.63683300;2023-04-25T05:16:21;4.20;99.90
2767;DHT22;1391;46.74287300;11.63683300;2023-04-25T05:18:49;4.10;99.90
2767;DHT22;1391;46.74287300;11.63683300;2023-04-25T05:21:18;4.10;99.90
2767;DHT22;1391;46.74287300;11.63683300;2023-04-25T05:23:46;4.40;99.90
2767;DHT22;1391;46.74287300;11.63683300;2023-04-25T05:26:13;4.70;99.90
2767;DHT22;1391;46.74287300;11.63683300;2023-04-25T05:28:40;4.50;99.90
2767;DHT22;1391;46.74287300;11.63683300;2023-04-25T05:31:09;4.50;99.90
2767;DHT22;1391;46.74287300;11.63683300;2023-04-25T05:33:37;4.90;99.90
2767;DHT22;1391;46.74287300;11.63683300;2023-04-25T05:36:05;4.90;99.90
2767;DHT22;1391;46.74287300;11.63683300;2023-04-25T05:38:35;4.50;99.90
2767;DHT22;1391;46.74287300;11.63683300;2023-04-25T05:41:02;4.70;99.90
2767;DHT22;1391;46.74287300;11.63683300;2023-04-25T05:43:30;4.80;99.90
2767;DHT22;1391;46.74287300;11.63683300;2023-04-25T05:45:57;4.90;99.90
2767;DHT22;1391;46.74287300;11.63683300;2023-04-25T05:48:25;4.70;99.90
2767;DHT22;1391;46.74287300;11.63683300;2023-04-25T05:50:52;4.90;99.90
2767;DHT22;1391;46.74287300;11.63683300;2023-04-25T05:53:20;5.30;99.70
2767;DHT22;1391;46.74287300;11.63683300;2023-04-25T05:55:49;5.10;96.00
2767;DHT22;1391;46.74287300;11.63683300;2023-04-25T05:58:16;5.80;94.10
2767;DHT22;1391;46.74287300;11.63683300;2023-04-25T06:00:44;5.90;92.10
2767;DHT22;1391;46.74287300;11.63683300;2023-04-25T06:03:11;5.90;91.70
2767;DHT22;1391;46.74287300;11.63683300;2023-04-25T06:05:41;6.00;93.40
2767;DHT22;1391;46.74287300;11.63683300;2023-04-25T06:08:08;5.90;93.30
2767;DHT22;1391;46.74287300;11.63683300;2023-04-25T06:10:36;5.70;91.60
2767;DHT22;1391;46.74287300;11.63683300;2023-04-25T06:13:05;5.60;91.20
2767;DHT22;1391;46.74287300;11.63683300;2023-04-25T06:15:33;5.50;89.50
2767;DHT22;1391;46.74287300;11.63683300;2023-04-25T06:18:00;5.50;90.00
2767;DHT22;1391;46.74287300;11.63683300;2023-04-25T06:20:28;6.10;88.40
2767;DHT22;1391;46.74287300;11.63683300;2023-04-25T06:22:55;6.00;85.80
2767;DHT22;1391;46.74287300;11.63683300;2023-04-25T06:25:22;6.00;82.00
2767;DHT22;1391;46.74287300;11.63683300;2023-04-25T06:27:50;6.40;81.70
2767;DHT22;1391;46.74287300;11.63683300;2023-04-25T06:30:19;6.50;82.90
2767;DHT22;1391;46.74287300;11.63683300;2023-04-25T06:32:49;6.50;79.00
2767;DHT22;1391;46.74287300;11.63683300;2023-04-25T06:35:16;6.50;78.20
2767;DHT22;1391;46.74287300;11.63683300;2023-04-25T06:37:44;7.00;73.30
2767;DHT22;1391;46.74287300;11.63683300;2023-04-25T06:40:11;6.90;69.90
2767;DHT22;1391;46.74287300;11.63683300;2023-04-25T06:42:38;7.00;72.00
2767;DHT22;1391;46.74287300;11.63683300;2023-04-25T06:45:07;7.00;69.90
2767;DHT22;1391;46.74287300;11.63683300;2023-04-25T06:47:36;7.50;67.40
2767;DHT22;1391;46.74287300;11.63683300;2023-04-25T06:50:04;7.70;66.70
2767;DHT22;1391;46.74287300;11.63683300;2023-04-25T06:52:32;7.70;65.80
2767;DHT22;1391;46.74287300;11.63683300;2023-04-25T06:54:59;7.80;65.30
2767;DHT22;1391;46.74287300;11.63683300;2023-04-25T06:57:27;8.00;66.20
2767;DHT22;1391;46.74287300;11.63683300;2023-04-25T06:59:54;8.20;62.40
2767;DHT22;1391;46.74287300;11.63683300;2023-04-25T07:02:21;8.30;57.70
2767;DHT22;1391;46.74287300;11.63683300;2023-04-25T07:04:50;9.00;60.00
2767;DHT22;1391;46.74287300;11.63683300;2023-04-25T07:07:17;9.00;58.40
2767;DHT22;1391;46.74287300;11.63683300;2023-04-25T07:09:45;8.60;57.20
2767;DHT22;1391;46.74287300;11.63683300;2023-04-25T07:12:13;9.00;54.00
2767;DHT22;1391;46.74287300;11.63683300;2023-04-25T07:14:40;9.00;55.80
2767;DHT22;1391;46.74287300;11.63683300;2023-04-25T07:17:07;9.50;55.70
2767;DHT22;1391;46.74287300;11.63683300;2023-04-25T07:19:35;9.60;52.50
2767;DHT22;1391;46.74287300;11.63683300;2023-04-25T07:22:07;9.80;50.20
2767;DHT22;1391;46.74287300;11.63683300;2023-04-25T07:24:35;9.90;54.90
2767;DHT22;1391;46.74287300;11.63683300;2023-04-25T07:27:02;10.20;48.70
2767;DHT22;1391;46.74287300;11.63683300;2023-04-25T07:29:30;10.70;48.40
2767;DHT22;1391;46.74287300;11.63683300;2023-04-25T07:31:58;10.80;49.90
2767;DHT22;1391;46.74287300;11.63683300;2023-04-25T07:34:25;11.30;45.30
2767;DHT22;1391;46.74287300;11.63683300;2023-04-25T07:36:53;11.70;45.90
2767;DHT22;1391;46.74287300;11.63683300;2023-04-25T07:39:21;11.90;48.00
2767;DHT22;1391;46.74287300;11.63683300;2023-04-25T07:41:50;12.20;46.50
2767;DHT22;1391;46.74287300;11.63683300;2023-04-25T07:44:18;12.40;39.80
2767;DHT22;1391;46.74287300;11.63683300;2023-04-25T07:46:45;11.50;36.80
2767;DHT22;1391;46.74287300;11.63683300;2023-04-25T07:49:13;11.10;35.00
2767;DHT22;1391;46.74287300;11.63683300;2023-04-25T07:51:40;11.60;41.80
2767;DHT22;1391;46.74287300;11.63683300;2023-04-25T07:54:09;11.90;38.50
2767;DHT22;1391;46.74287300;11.63683300;2023-04-25T07:56:37;12.70;35.40
2767;DHT22;1391;46.74287300;11.63683300;2023-04-25T07:59:05;12.90;38.30
2767;DHT22;1391;46.74287300;11.63683300;2023-04-25T08:01:33;13.70;36.50
2767;DHT22;1391;46.74287300;11.63683300;2023-04-25T08:04:01;12.80;32.80
2767;DHT22;1391;46.74287300;11.63683300;2023-04-25T08:06:28;12.40;37.50
2767;DHT22;1391;46.74287300;11.63683300;2023-04-25T08:08:55;13.50;33.30
2767;DHT22;1391;46.74287300;11.63683300;2023-04-25T08:11:23;13.10;32.10
2767;DHT22;1391;46.74287300;11.63683300;2023-04-25T08:13:52;12.80;30.00
2767;DHT22;1391;46.74287300;11.63683300;2023-04-25T08:16:19;12.90;30.80
2767;DHT22;1391;46.74287300;11.63683300;2023-04-25T08:18:46;13.40;34.00
2767;DHT22;1391;46.74287300;11.63683300;2023-04-25T08:21:14;12.70;27.70
2767;DHT22;1391;46.74287300;11.63683300;2023-04-25T08:23:41;12.90;31.00
2767;DHT22;1391;46.74287300;11.63683300;2023-04-25T08:26:08;13.20;29.80
2767;DHT22;1391;46.74287300;11.63683300;2023-04-25T08:28:36;14.00;28.00
2767;DHT22;1391;46.74287300;11.63683300;2023-04-25T08:31:05;13.60;27.70
2767;DHT22;1391;46.74287300;11.63683300;2023-04-25T08:33:33;14.00;28.40
2767;DHT22;1391;46.74287300;11.63683300;2023-04-25T08:36:00;14.00;27.80
2767;DHT22;1391;46.74287300;11.63683300;2023-04-25T08:38:28;13.30;26.80
2767;DHT22;1391;46.74287300;11.63683300;2023-04-25T08:40:56;13.80;26.90
2767;DHT22;1391;46.74287300;11.63683300;2023-04-25T08:43:25;13.70;28.60
2767;DHT22;1391;46.74287300;11.63683300;2023-04-25T08:45:53;14.00;26.70
2767;DHT22;1391;46.74287300;11.63683300;2023-04-25T08:48:23;14.60;30.70
2767;DHT22;1391;46.74287300;11.63683300;2023-04-25T08:50:53;14.20;25.10
2767;DHT22;1391;46.74287300;11.63683300;2023-04-25T08:53:28;15.10;31.00
2767;DHT22;1391;46.74287300;11.63683300;2023-04-25T08:55:58;15.70;25.30
2767;DHT22;1391;46.74287300;11.63683300;2023-04-25T08:58:28;15.40;22.30
2767;DHT22;1391;46.74287300;11.63683300;2023-04-25T09:00:55;15.60;25.30
2767;DHT22;1391;46.74287300;11.63683300;2023-04-25T09:03:24;16.30;19.60
2767;DHT22;1391;46.74287300;11.63683300;2023-04-25T09:05:51;16.40;25.10
2767;DHT22;1391;46.74287300;11.63683300;2023-04-25T09:08:19;16.30;22.70
2767;DHT22;1391;46.74287300;11.63683300;2023-04-25T09:10:46;15.40;17.70
2767;DHT22;1391;46.74287300;11.63683300;2023-04-25T09:13:14;15.00;17.00
2767;DHT22;1391;46.74287300;11.63683300;2023-04-25T09:15:53;14.90;19.60
2767;DHT22;1391;46.74287300;11.63683300;2023-04-25T09:18:26;15.00;21.60
2767;DHT22;1391;46.74287300;11.63683300;2023-04-25T09:20:55;14.10;18.20
2767;DHT22;1391;46.74287300;11.63683300;2023-04-25T09:23:23;14.30;23.60
2767;DHT22;1391;46.74287300;11.63683300;2023-04-25T09:25:53;15.50;18.80
2767;DHT22;1391;46.74287300;11.63683300;2023-04-25T09:28:23;15.50;22.00
2767;DHT22;1391;46.74287300;11.63683300;2023-04-25T09:30:55;15.60;16.40
2767;DHT22;1391;46.74287300;11.63683300;2023-04-25T09:33:29;16.00;18.60
2767;DHT22;1391;46.74287300;11.63683300;2023-04-25T09:36:02;16.10;14.90
2767;DHT22;1391;46.74287300;11.63683300;2023-04-25T09:38:32;15.90;18.40
2767;DHT22;1391;46.74287300;11.63683300;2023-04-25T09:41:07;16.60;15.00
2767;DHT22;1391;46.74287300;11.63683300;2023-04-25T09:43:39;16.20;14.10
2767;DHT22;1391;46.74287300;11.63683300;2023-04-25T09:46:09;16.50;12.10
2767;DHT22;1391;46.74287300;11.63683300;2023-04-25T09:48:39;16.10;13.90
2767;DHT22;1391;46.74287300;11.63683300;2023-04-25T09:51:07;16.00;15.20
2767;DHT22;1391;46.74287300;11.63683300;2023-04-25T09:53:37;15.30;16.60
2767;DHT22;1391;46.74287300;11.63683300;2023-04-25T09:56:09;15.30;14.00
2767;DHT22;1391;46.74287300;11.63683300;2023-04-25T09:58:39;15.60;21.10
2767;DHT22;1391;46.74287300;11.63683300;2023-04-25T10:01:08;15.60;20.00
2767;DHT22;1391;46.74287300;11.63683300;2023-04-25T10:03:38;15.50;12.50
2767;DHT22;1391;46.74287300;11.63683300;2023-04-25T10:06:12;15.40;18.10
2767;DHT22;1391;46.74287300;11.63683300;2023-04-25T10:08:40;15.30;12.90
2767;DHT22;1391;46.74287300;11.63683300;2023-04-25T10:11:09;15.20;8.00
2767;DHT22;1391;46.74287300;11.63683300;2023-04-25T10:13:36;16.00;14.60
2767;DHT22;1391;46.74287300;11.63683300;2023-04-25T10:16:05;15.40;6.80
2767;DHT22;1391;46.74287300;11.63683300;2023-04-25T10:18:33;16.10;8.70
2767;DHT22;1391;46.74287300;11.63683300;2023-04-25T10:21:04;16.00;11.60
2767;DHT22;1391;46.74287300;11.63683300;2023-04-25T10:23:32;16.10;19.70
2767;DHT22;1391;46.74287300;11.63683300;2023-04-25T10:26:00;15.60;13.50
2767;DHT22;1391;46.74287300;11.63683300;2023-04-25T10:28:28;15.90;16.60
2767;DHT22;1391;46.74287300;11.63683300;2023-04-25T10:30:59;15.80;15.80
2767;DHT22;1391;46.74287300;11.63683300;2023-04-25T10:33:32;14.90;11.70
2767;DHT22;1391;46.74287300;11.63683300;2023-04-25T10:36:11;15.10;18.40
2767;DHT22;1391;46.74287300;11.63683300;2023-04-25T10:38:40;15.60;16.30
2767;DHT22;1391;46.74287300;11.63683300;2023-04-25T10:41:10;15.50;14.20
2767;DHT22;1391;46.74287300;11.63683300;2023-04-25T10:43:40;15.40;15.60
2767;DHT22;1391;46.74287300;11.63683300;2023-04-25T10:46:16;15.10;15.40
2767;DHT22;1391;46.74287300;11.63683300;2023-04-25T10:48:49;15.10;15.80
2767;DHT22;1391;46.74287300;11.63683300;2023-04-25T10:51:22;15.70;13.70
2767;DHT22;1391;46.74287300;11.63683300;2023-04-25T10:53:59;16.20;14.90
2767;DHT22;1391;46.74287300;11.63683300;2023-04-25T10:56:28;16.10;11.30
2767;DHT22;1391;46.74287300;11.63683300;2023-04-25T10:59:18;15.60;16.50
2767;DHT22;1391;46.74287300;11.63683300;2023-04-25T11:01:52;15.50;14.70
2767;DHT22;1391;46.74287300;11.63683300;2023-04-25T11:04:20;15.00;17.30
2767;DHT22;1391;46.74287300;11.63683300;2023-04-25T11:07:00;14.60;17.30
2767;DHT22;1391;46.74287300;11.63683300;2023-04-25T11:09:34;14.60;14.70
2767;DHT22;1391;46.74287300;11.63683300;2023-04-25T11:12:04;14.50;13.70
2767;DHT22;1391;46.74287300;11.63683300;2023-04-25T11:14:32;14.10;14.30
2767;DHT22;1391;46.74287300;11.63683300;2023-04-25T11:17:00;14.00;17.80
2767;DHT22;1391;46.74287300;11.63683300;2023-04-25T11:19:28;14.00;14.30
2767;DHT22;1391;46.74287300;11.63683300;2023-04-25T11:21:58;13.60;15.80
2767;DHT22;1391;46.74287300;11.63683300;2023-04-25T11:24:27;13.70;15.00
2767;DHT22;1391;46.74287300;11.63683300;2023-04-25T11:26:55;13.60;13.80
2767;DHT22;1391;46.74287300;11.63683300;2023-04-25T11:29:22;14.00;14.80
2767;DHT22;1391;46.74287300;11.63683300;2023-04-25T11:31:50;14.00;13.60
2767;DHT22;1391;46.74287300;11.63683300;2023-04-25T11:34:18;14.50;14.00
2767;DHT22;1391;46.74287300;11.63683300;2023-04-25T11:36:51;15.60;12.30
2767;DHT22;1391;46.74287300;11.63683300;2023-04-25T11:39:20;16.60;18.30
2767;DHT22;1391;46.74287300;11.63683300;2023-04-25T11:41:48;16.60;12.10
2767;DHT22;1391;46.74287300;11.63683300;2023-04-25T11:44:16;16.10;9.50
2767;DHT22;1391;46.74287300;11.63683300;2023-04-25T11:46:45;15.30;11.80
2767;DHT22;1391;46.74287300;11.63683300;2023-04-25T11:49:13;15.20;14.50
2767;DHT22;1391;46.74287300;11.63683300;2023-04-25T11:51:41;15.00;10.90
2767;DHT22;1391;46.74287300;11.63683300;2023-04-25T11:54:11;14.50;13.40
2767;DHT22;1391;46.74287300;11.63683300;2023-04-25T11:56:42;13.70;15.20
2767;DHT22;1391;46.74287300;11.63683300;2023-04-25T11:59:10;13.20;14.30
2767;DHT22;1391;46.74287300;11.63683300;2023-04-25T12:01:39;13.10;13.80
2767;DHT22;1391;46.74287300;11.63683300;2023-04-25T12:04:12;13.10;14.50
2767;DHT22;1391;46.74287300;11.63683300;2023-04-25T12:06:43;13.20;17.40
2767;DHT22;1391;46.74287300;11.63683300;2023-04-25T12:09:12;13.10;17.00
2767;DHT22;1391;46.74287300;11.63683300;2023-04-25T12:11:43;13.60;19.50
2767;DHT22;1391;46.74287300;11.63683300;2023-04-25T12:14:11;14.70;18.00
2767;DHT22;1391;46.74287300;11.63683300;2023-04-25T12:16:41;15.10;15.90
2767;DHT22;1391;46.74287300;11.63683300;2023-04-25T12:19:09;16.00;13.90
2767;DHT22;1391;46.74287300;11.63683300;2023-04-25T12:21:40;16.00;14.00
2767;DHT22;1391;46.74287300;11.63683300;2023-04-25T12:24:13;15.30;17.90
2767;DHT22;1391;46.74287300;11.63683300;2023-04-25T12:26:51;15.40;19.00
2767;DHT22;1391;46.74287300;11.63683300;2023-04-25T12:29:20;15.30;16.00
2767;DHT22;1391;46.74287300;11.63683300;2023-04-25T12:31:49;15.10;20.60
2767;DHT22;1391;46.74287300;11.63683300;2023-04-25T12:34:17;14.60;16.70
2767;DHT22;1391;46.74287300;11.63683300;2023-04-25T12:36:44;14.30;18.10
2767;DHT22;1391;46.74287300;11.63683300;2023-04-25T12:39:15;14.30;17.50
2767;DHT22;1391;46.74287300;11.63683300;2023-04-25T12:41:43;14.40;20.10
2767;DHT22;1391;46.74287300;11.63683300;2023-04-25T12:44:12;13.70;21.30
2767;DHT22;1391;46.74287300;11.63683300;2023-04-25T12:46:40;13.50;19.80
2767;DHT22;1391;46.74287300;11.63683300;2023-04-25T12:49:08;13.50;19.10
2767;DHT22;1391;46.74287300;11.63683300;2023-04-25T12:51:37;13.90;19.30
2767;DHT22;1391;46.74287300;11.63683300;2023-04-25T12:54:05;14.00;16.50
2767;DHT22;1391;46.74287300;11.63683300;2023-04-25T12:56:34;14.70;18.10
2767;DHT22;1391;46.74287300;11.63683300;2023-04-25T12:59:02;15.40;17.90
2767;DHT22;1391;46.74287300;11.63683300;2023-04-25T13:01:31;15.30;13.60
2767;DHT22;1391;46.74287300;11.63683300;2023-04-25T13:03:59;16.00;15.90
2767;DHT22;1391;46.74287300;11.63683300;2023-04-25T13:06:26;16.10;14.60
2767;DHT22;1391;46.74287300;11.63683300;2023-04-25T13:08:55;17.00;19.10
2767;DHT22;1391;46.74287300;11.63683300;2023-04-25T13:11:23;16.70;12.50
2767;DHT22;1391;46.74287300;11.63683300;2023-04-25T13:13:50;16.50;12.80
2767;DHT22;1391;46.74287300;11.63683300;2023-04-25T13:16:17;16.10;16.00
2767;DHT22;1391;46.74287300;11.63683300;2023-04-25T13:18:48;15.30;14.60
2767;DHT22;1391;46.74287300;11.63683300;2023-04-25T13:21:17;15.00;15.80
2767;DHT22;1391;46.74287300;11.63683300;2023-04-25T13:23:44;14.60;20.90
2767;DHT22;1391;46.74287300;11.63683300;2023-04-25T13:26:12;14.00;17.80
2767;DHT22;1391;46.74287300;11.63683300;2023-04-25T13:28:40;13.60;18.60
2767;DHT22;1391;46.74287300;11.63683300;2023-04-25T13:31:08;14.10;20.00
2767;DHT22;1391;46.74287300;11.63683300;2023-04-25T13:33:35;14.50;16.40
2767;DHT22;1391;46.74287300;11.63683300;2023-04-25T13:36:04;14.10;13.80
2767;DHT22;1391;46.74287300;11.63683300;2023-04-25T13:38:31;14.40;15.40
2767;DHT22;1391;46.74287300;11.63683300;2023-04-25T13:40:59;14.80;16.10
2767;DHT22;1391;46.74287300;11.63683300;2023-04-25T13:43:26;15.50;14.60
2767;DHT22;1391;46.74287300;11.63683300;2023-04-25T13:45:53;15.50;16.00
2767;DHT22;1391;46.74287300;11.63683300;2023-04-25T13:48:21;15.40;15.30
2767;DHT22;1391;46.74287300;11.63683300;2023-04-25T13:50:48;15.40;16.80